Forside
METAR-TAF:

METAR-TAF

Lufthavne :

Beirut, Libanon

Breddekreds: 33-49N, længdekreds: 035-29E, højde: 29 m

Aktuelle vejr

Denne rapport blev lavet for 35 minutter siden, kl. 16:00 UTC
Vind 7 kt fra nordnordøst
Temperatur 26°C
Fugtighed 74%
Tryk 1015 hPa
Sigt: 8000 m
Brudte skyer i en højde af 2600 ft
let regn

METAR: OLBA 161600Z 02007KT 8000 -RA BKN026 26/21 Q1015 NOSIG

Tid: 19:35 (16:35 UTC)

Vejrudsigter

Denne rapport blev lavet for 6 timer og 35 minutter siden, kl. 10:00 UTC
Foreløbig gælder fra 16 på 12 UTC til 17 på 18 UTC
Vind 8 kt fra nordvest
Sigt: 7000 m
Spredte skyer i en højde af 3000 ft
Spredte skyer i en højde af 5000 ft
Midlertidig
fra 16 på 12 UTC til 17 på 18 UTC
Sigt: 4000 m
Brudte skyer i en højde af 2300 ft
tordenbyger, let regn
ændring
fra 16 på 18 UTC til 16 på 21 UTC
Vind 5 kt fra sydøst
ændring
fra 17 på 07 UTC til 17 på 09 UTC
Vind 8 kt fra nordnordvest

TAF: OLBA 161000Z 1612/1718 32008KT 7000 SCT030 SCT050 TEMPO 1612/1718 4000 -TSRA BKN023 BECMG 1618/1621 14005KT BECMG 1707/1709 33008KT

Vejrobservationer og prognoser fra mere end 4000 lufthavne (METAR og TAF).

De gule og røde prikker repræsenterer de meteorologiske stationer.

Flyt musen over at se navnet på stationen.

Så klik over at se vejr observationer og prognoser.

At skifte det kort: Klik på de grønne knapper med et sort kors for at zoome ind; på den grønne knap med en bindestreg for at zoome ud; eller på de grønne pile for tilstødende kort.


METAR-TAF: